createdAt,value
2022-08-07T00:00:26.127Z,12.10
2022-08-07T00:02:53.519Z,12.80
2022-08-07T00:05:21.306Z,11.95
2022-08-07T00:07:58.198Z,12.45
2022-08-07T00:10:31.083Z,13.07
2022-08-07T00:13:09.852Z,12.73
2022-08-07T00:15:52.594Z,12.60
2022-08-07T00:18:24.439Z,12.32
2022-08-07T00:20:57.709Z,12.50
2022-08-07T00:23:30.719Z,11.75
2022-08-07T00:26:02.884Z,12.27
2022-08-07T00:28:45.572Z,11.55
2022-08-07T00:31:16.477Z,11.48
2022-08-07T00:33:47.449Z,11.52
2022-08-07T00:36:14.948Z,11.38
2022-08-07T00:38:43.748Z,12.68
2022-08-07T00:41:14.725Z,12.50
2022-08-07T00:44:00.471Z,13.20
2022-08-07T00:46:32.918Z,14.02
2022-08-07T00:51:58.391Z,12.55
2022-08-07T00:54:17.867Z,12.98
2022-08-07T00:56:49.982Z,13.25
2022-08-07T00:59:20.143Z,12.18
2022-08-07T01:02:00.052Z,12.88
2022-08-07T01:04:27.805Z,13.23
2022-08-07T01:06:57.196Z,11.65
2022-08-07T01:10:03.959Z,12.85
2022-08-07T01:12:29.846Z,11.32
2022-08-07T01:15:01.085Z,10.90
2022-08-07T01:17:31.914Z,11.88
2022-08-07T01:20:04.753Z,11.82
2022-08-07T01:22:31.903Z,11.13
2022-08-07T01:24:59.748Z,11.57
2022-08-07T01:27:32.156Z,11.07
2022-08-07T01:30:00.672Z,11.90
2022-08-07T01:32:28.769Z,12.10
2022-08-07T01:34:56.088Z,12.00
2022-08-07T01:37:24.769Z,11.80
2022-08-07T01:39:52.496Z,11.07
2022-08-07T01:42:39.394Z,11.70
2022-08-07T01:45:09.649Z,12.13
2022-08-07T01:48:29.176Z,10.80
2022-08-07T01:50:28.841Z,10.98
2022-08-07T01:52:58.415Z,10.23
2022-08-07T01:55:34.258Z,11.85
2022-08-07T01:58:29.358Z,11.32
2022-08-07T02:01:25.184Z,11.20
2022-08-07T02:03:52.048Z,11.15
2022-08-07T02:06:31.305Z,11.65
2022-08-07T02:09:04.250Z,12.27
2022-08-07T02:12:04.194Z,12.05
2022-08-07T02:14:35.831Z,12.20
2022-08-07T02:20:04.045Z,11.75
2022-08-07T02:22:20.745Z,12.02
2022-08-07T02:24:55.404Z,11.70
2022-08-07T02:27:25.161Z,11.85
2022-08-07T02:29:55.012Z,11.20
2022-08-07T02:32:27.089Z,11.47
2022-08-07T02:34:58.844Z,12.13
2022-08-07T02:37:33.933Z,12.25
2022-08-07T02:40:30.472Z,12.00
2022-08-07T02:42:51.394Z,12.00
2022-08-07T02:45:58.269Z,12.32
2022-08-07T02:48:10.411Z,12.57
2022-08-07T02:50:44.874Z,12.40
2022-08-07T02:53:20.076Z,12.90
2022-08-07T02:56:03.198Z,12.25
2022-08-07T02:58:34.177Z,12.20
2022-08-07T03:01:03.905Z,12.30
2022-08-07T03:03:49.913Z,11.67
2022-08-07T03:06:26.018Z,11.60
2022-08-07T03:09:01.636Z,11.93
2022-08-07T03:11:32.945Z,12.00
2022-08-07T03:14:05.984Z,12.40
2022-08-07T03:16:34.723Z,13.20
2022-08-07T03:19:02.608Z,12.10
2022-08-07T03:21:33.048Z,12.52
2022-08-07T03:24:18.145Z,11.82
2022-08-07T03:26:58.772Z,11.90
2022-08-07T03:29:31.069Z,12.50
2022-08-07T03:32:04.657Z,12.70
2022-08-07T03:34:39.121Z,12.05
2022-08-07T03:37:12.291Z,11.75
2022-08-07T03:39:46.025Z,11.98
2022-08-07T03:42:27.143Z,12.50
2022-08-07T03:44:57.780Z,12.70
2022-08-07T03:47:29.474Z,12.40
2022-08-07T03:50:12.439Z,13.40
2022-08-07T03:52:41.006Z,12.20
2022-08-07T03:55:09.482Z,12.98
2022-08-07T03:58:33.427Z,13.00
2022-08-07T04:00:30.760Z,13.20
2022-08-07T04:03:03.824Z,12.77
2022-08-07T04:05:39.493Z,14.35
2022-08-07T04:08:12.115Z,13.57
2022-08-07T04:10:42.180Z,14.30
2022-08-07T04:13:15.192Z,14.13
2022-08-07T04:15:43.924Z,15.55
2022-08-07T04:18:57.866Z,15.18
2022-08-07T04:21:03.609Z,14.95
2022-08-07T04:23:43.457Z,14.60
2022-08-07T04:26:22.776Z,14.48
2022-08-07T04:28:51.827Z,15.10
2022-08-07T04:31:19.730Z,16.27
2022-08-07T04:33:55.079Z,16.52
2022-08-07T04:36:26.235Z,17.02
2022-08-07T04:38:53.471Z,16.25
2022-08-07T04:41:20.840Z,16.55
2022-08-07T04:44:10.470Z,16.83
2022-08-07T04:47:04.115Z,17.48
2022-08-07T04:50:10.958Z,17.85
2022-08-07T04:52:52.264Z,18.38
2022-08-07T04:58:49.577Z,15.90
2022-08-07T05:01:37.113Z,15.57
2022-08-07T05:04:31.937Z,15.32
2022-08-07T05:07:19.803Z,16.83
2022-08-07T05:10:11.780Z,17.10
2022-08-07T05:12:53.852Z,15.93
2022-08-07T05:15:28.526Z,15.95
2022-08-07T05:18:00.460Z,16.77
2022-08-07T05:20:38.058Z,18.70
2022-08-07T05:23:16.197Z,20.40
2022-08-07T05:26:10.751Z,19.00
2022-08-07T05:28:37.022Z,19.33
2022-08-07T05:31:10.227Z,18.67
2022-08-07T05:33:38.690Z,18.58
2022-08-07T05:36:08.157Z,18.90
2022-08-07T05:39:00.607Z,19.35
2022-08-07T05:42:02.290Z,19.15
2022-08-07T05:44:29.362Z,19.55
2022-08-07T05:46:58.176Z,19.90
2022-08-07T05:49:27.928Z,20.25
2022-08-07T05:52:11.569Z,19.55
2022-08-07T05:54:53.124Z,19.88
2022-08-07T05:57:26.718Z,20.50
2022-08-07T05:59:59.489Z,19.98
2022-08-07T06:02:31.251Z,19.58
2022-08-07T06:05:05.030Z,20.50
2022-08-07T06:08:14.818Z,20.08
2022-08-07T06:10:21.911Z,18.27
2022-08-07T06:12:50.020Z,19.27
2022-08-07T06:15:19.728Z,19.42
2022-08-07T06:17:53.772Z,18.67
2022-08-07T06:20:31.990Z,18.58
2022-08-07T06:23:25.557Z,19.00
2022-08-07T06:26:00.607Z,18.65
2022-08-07T06:28:28.599Z,18.58
2022-08-07T06:30:56.528Z,18.25
2022-08-07T06:33:26.176Z,18.75
2022-08-07T06:36:11.754Z,17.48
2022-08-07T06:38:59.546Z,17.75
2022-08-07T06:42:02.409Z,16.98
2022-08-07T06:44:21.663Z,17.40
2022-08-07T06:46:53.312Z,17.88
2022-08-07T06:49:27.064Z,16.30
2022-08-07T06:51:59.570Z,16.88
2022-08-07T06:55:34.102Z,19.55
2022-08-07T06:57:26.279Z,16.35
2022-08-07T07:00:17.655Z,16.77
2022-08-07T07:02:53.444Z,17.58
2022-08-07T07:06:03.041Z,16.70
2022-08-07T07:08:12.692Z,16.77
2022-08-07T07:10:47.626Z,16.48
2022-08-07T07:13:43.683Z,15.90
2022-08-07T07:16:23.747Z,16.70
2022-08-07T07:19:11.096Z,15.85
2022-08-07T07:22:04.774Z,15.60
2022-08-07T07:24:43.004Z,15.50
2022-08-07T07:27:35.702Z,15.65
2022-08-07T07:30:32.805Z,16.02
2022-08-07T07:33:05.445Z,15.23
2022-08-07T07:35:34.063Z,15.15
2022-08-07T07:38:24.517Z,16.15
2022-08-07T07:41:00.090Z,15.30
2022-08-07T07:43:48.045Z,14.98
2022-08-07T07:46:39.906Z,14.25
2022-08-07T07:50:33.222Z,14.10
2022-08-07T07:51:59.639Z,15.02
2022-08-07T07:54:28.384Z,14.05
2022-08-07T07:56:57.574Z,14.25
2022-08-07T07:59:52.342Z,14.07
2022-08-07T08:02:22.743Z,12.07
2022-08-07T08:05:05.143Z,12.77
2022-08-07T08:07:42.411Z,10.70
2022-08-07T08:10:38.084Z,12.45
2022-08-07T08:13:10.586Z,11.05
2022-08-07T08:15:57.628Z,11.40
2022-08-07T08:18:27.965Z,11.15
2022-08-07T08:20:58.409Z,10.85
2022-08-07T08:23:45.440Z,11.07
2022-08-07T08:26:34.264Z,9.45
2022-08-07T08:29:04.147Z,10.65
2022-08-07T08:31:59.193Z,10.13
2022-08-07T08:34:29.032Z,9.68
2022-08-07T08:36:58.609Z,10.95
2022-08-07T08:39:39.408Z,9.90
2022-08-07T08:42:21.355Z,9.80
2022-08-07T08:45:16.149Z,9.05
2022-08-07T08:47:52.449Z,9.43
2022-08-07T08:50:38.855Z,10.20
2022-08-07T08:53:25.704Z,8.35
2022-08-07T08:56:11.248Z,9.40
2022-08-07T08:58:57.236Z,9.35
2022-08-07T09:01:59.531Z,9.25
2022-08-07T09:04:45.629Z,9.05
2022-08-07T09:07:46.562Z,8.80
2022-08-07T09:10:35.965Z,9.50
2022-08-07T09:13:37.147Z,9.40
2022-08-07T09:16:20.645Z,10.05
2022-08-07T09:18:58.654Z,10.88
2022-08-07T09:21:57.749Z,11.43
2022-08-07T09:24:58.852Z,11.20
2022-08-07T09:27:59.492Z,10.57
2022-08-07T09:31:03.137Z,10.55
2022-08-07T09:33:57.657Z,10.02
2022-08-07T09:36:35.392Z,10.05
2022-08-07T09:39:11.510Z,9.25
2022-08-07T09:41:58.962Z,9.35
2022-08-07T09:47:49.461Z,10.48
2022-08-07T09:48:11.826Z,9.00
2022-08-07T09:50:59.516Z,9.00
2022-08-07T09:53:41.316Z,9.35
2022-08-07T09:56:39.216Z,9.25
2022-08-07T09:59:35.805Z,9.93
2022-08-07T10:02:35.071Z,9.98
2022-08-07T10:05:17.371Z,9.90
2022-08-07T10:08:25.425Z,10.13
2022-08-07T10:11:17.121Z,9.82
2022-08-07T10:14:15.376Z,10.55
2022-08-07T10:18:01.538Z,11.02
2022-08-07T10:20:38.830Z,10.13
2022-08-07T10:23:08.179Z,10.57
2022-08-07T10:29:12.460Z,11.27
2022-08-07T10:32:00.243Z,12.02
2022-08-07T10:34:40.271Z,10.90
2022-08-07T10:38:00.909Z,11.05
2022-08-07T10:40:30.208Z,11.07
2022-08-07T10:43:14.285Z,12.07
2022-08-07T10:45:57.452Z,11.82
2022-08-07T10:48:55.367Z,11.50
2022-08-07T10:52:01.728Z,11.55
2022-08-07T10:54:24.936Z,11.77
2022-08-07T10:57:15.449Z,11.73
2022-08-07T11:00:39.330Z,11.70
2022-08-07T11:03:17.085Z,11.23
2022-08-07T11:06:04.761Z,10.40
2022-08-07T11:08:53.159Z,10.07
2022-08-07T11:11:59.196Z,10.75
2022-08-07T11:14:45.968Z,11.13
2022-08-07T11:18:03.771Z,10.27
2022-08-07T11:20:49.682Z,10.75
2022-08-07T11:23:38.598Z,11.07
2022-08-07T11:26:26.742Z,10.95
2022-08-07T11:28:58.471Z,10.80
2022-08-07T11:31:35.463Z,11.07
2022-08-07T11:34:24.653Z,11.63
2022-08-07T11:37:11.748Z,10.80
2022-08-07T11:40:03.531Z,12.15
2022-08-07T11:42:42.680Z,10.95
2022-08-07T11:45:37.328Z,10.82
2022-08-07T11:48:29.047Z,12.00
2022-08-07T11:51:44.655Z,11.60
2022-08-07T11:54:36.395Z,12.00
2022-08-07T11:57:14.277Z,11.85
2022-08-07T12:00:10.492Z,11.40
2022-08-07T12:02:57.431Z,11.80
2022-08-07T12:05:59.460Z,11.82
2022-08-07T12:08:45.607Z,12.68
2022-08-07T12:11:32.542Z,11.52
2022-08-07T12:14:21.659Z,12.75
2022-08-07T12:16:55.920Z,12.35
2022-08-07T12:20:02.682Z,11.65
2022-08-07T12:24:05.479Z,12.90
2022-08-07T12:26:22.928Z,12.38
2022-08-07T12:29:09.449Z,11.98
2022-08-07T12:31:53.382Z,12.23
2022-08-07T12:34:32.976Z,12.27
2022-08-07T12:37:02.048Z,11.77
2022-08-07T12:39:43.663Z,12.20
2022-08-07T12:42:27.960Z,12.23
2022-08-07T12:44:58.165Z,11.65
2022-08-07T12:47:32.828Z,12.18
2022-08-07T12:50:38.088Z,11.90
2022-08-07T12:53:22.521Z,11.45
2022-08-07T12:56:21.680Z,11.82
2022-08-07T12:58:53.253Z,11.30
2022-08-07T13:01:27.906Z,11.43
2022-08-07T13:04:31.594Z,12.35
2022-08-07T13:08:13.464Z,12.45
2022-08-07T13:10:52.077Z,11.33
2022-08-07T13:13:50.148Z,11.85
2022-08-07T13:16:31.916Z,12.35
2022-08-07T13:19:45.679Z,11.73
2022-08-07T13:22:34.153Z,11.90
2022-08-07T13:25:08.313Z,11.60
2022-08-07T13:28:12.575Z,11.77
2022-08-07T13:30:43.915Z,11.40
2022-08-07T13:34:34.509Z,12.30
2022-08-07T13:36:30.590Z,11.30
2022-08-07T13:39:49.178Z,11.57
2022-08-07T13:42:03.047Z,12.88
2022-08-07T13:44:34.645Z,11.05
2022-08-07T13:47:09.498Z,11.98
2022-08-07T13:50:33.401Z,11.85
2022-08-07T13:52:38.163Z,11.57
2022-08-07T13:55:19.750Z,10.90
2022-08-07T13:58:27.604Z,11.38
2022-08-07T14:01:08.780Z,11.85
2022-08-07T14:04:07.396Z,10.55
2022-08-07T14:06:36.965Z,10.60
2022-08-07T14:09:07.336Z,10.73
2022-08-07T14:12:00.233Z,11.68
2022-08-07T14:14:42.749Z,12.32
2022-08-07T14:17:13.206Z,11.30
2022-08-07T14:20:42.730Z,12.02
2022-08-07T14:23:59.469Z,12.30
2022-08-07T14:26:28.172Z,12.23
2022-08-07T14:29:08.445Z,12.65
2022-08-07T14:31:53.414Z,11.10
2022-08-07T14:34:30.063Z,12.95
2022-08-07T14:37:01.644Z,13.30
2022-08-07T14:40:16.375Z,12.32
2022-08-07T14:42:27.464Z,11.65
2022-08-07T14:47:50.419Z,11.90
2022-08-07T14:50:20.566Z,9.73
2022-08-07T14:55:55.574Z,9.60
2022-08-07T14:58:27.153Z,9.40
2022-08-07T15:00:55.658Z,9.70
2022-08-07T15:03:51.355Z,9.27
2022-08-07T15:06:23.142Z,10.15
2022-08-07T15:08:54.973Z,9.95
2022-08-07T15:14:25.486Z,10.15
2022-08-07T15:17:04.387Z,9.90
2022-08-07T15:20:30.822Z,10.27
2022-08-07T15:22:32.878Z,10.52
2022-08-07T15:28:33.125Z,11.10
2022-08-07T15:31:05.152Z,10.77
2022-08-07T15:33:36.000Z,12.30
2022-08-07T15:42:46.201Z,11.00
2022-08-07T15:44:51.910Z,15.70
2022-08-07T15:48:00.119Z,10.55
2022-08-07T15:50:37.814Z,11.18
2022-08-07T15:53:13.067Z,11.70
2022-08-07T15:55:53.417Z,10.80
2022-08-07T15:58:39.091Z,10.45
2022-08-07T16:01:12.328Z,9.90
2022-08-07T16:03:47.035Z,11.23
2022-08-07T16:06:23.855Z,10.68
2022-08-07T16:08:52.701Z,10.50
2022-08-07T16:11:46.370Z,10.30
2022-08-07T16:14:19.497Z,9.95
2022-08-07T16:17:00.593Z,8.57
2022-08-07T16:19:59.012Z,8.85
2022-08-07T16:22:33.923Z,9.82
2022-08-07T16:25:53.076Z,8.90
2022-08-07T16:30:06.767Z,8.23
2022-08-07T16:31:50.935Z,9.07
2022-08-07T16:34:48.163Z,8.93
2022-08-07T16:38:04.207Z,7.97
2022-08-07T16:40:28.985Z,7.80
2022-08-07T16:44:06.217Z,7.18
2022-08-07T16:47:08.814Z,6.43
2022-08-07T16:50:20.186Z,6.20
2022-08-07T16:53:14.948Z,6.30
2022-08-07T16:55:53.634Z,6.20
2022-08-07T16:58:33.716Z,5.85
2022-08-07T17:01:34.297Z,5.60
2022-08-07T17:04:04.133Z,5.43
2022-08-07T17:07:06.303Z,5.75
2022-08-07T17:10:33.040Z,5.60
2022-08-07T17:13:41.171Z,5.30
2022-08-07T17:16:25.968Z,5.22
2022-08-07T17:19:15.606Z,5.00
2022-08-07T17:22:10.584Z,5.35
2022-08-07T17:24:52.557Z,5.45
2022-08-07T17:27:39.847Z,5.10
2022-08-07T17:30:19.901Z,5.13
2022-08-07T17:32:53.428Z,4.60
2022-08-07T17:35:49.932Z,5.13
2022-08-07T17:38:33.441Z,5.18
2022-08-07T17:42:01.943Z,5.20
2022-08-07T17:44:42.758Z,5.07
2022-08-07T17:47:42.701Z,5.38
2022-08-07T17:50:30.556Z,5.40
2022-08-07T17:53:06.036Z,5.22
2022-08-07T17:56:00.340Z,5.20
2022-08-07T17:58:59.096Z,5.60
2022-08-07T18:01:37.218Z,5.45
2022-08-07T18:04:24.631Z,5.22
2022-08-07T18:07:20.439Z,5.47
2022-08-07T18:10:32.393Z,5.32
2022-08-07T18:13:15.334Z,5.03
2022-08-07T18:16:06.904Z,4.90
2022-08-07T18:21:03.742Z,4.78
2022-08-07T18:21:58.507Z,4.90
2022-08-07T18:24:34.405Z,5.30
2022-08-07T18:27:17.187Z,4.88
2022-08-07T18:30:06.128Z,5.32
2022-08-07T18:32:47.111Z,6.00
2022-08-07T18:35:16.582Z,6.05
2022-08-07T18:38:55.758Z,5.85
2022-08-07T18:41:44.846Z,6.25
2022-08-07T18:44:45.978Z,5.45
2022-08-07T18:47:44.698Z,5.50
2022-08-07T18:50:39.534Z,5.60
2022-08-07T18:53:36.801Z,4.97
2022-08-07T18:56:13.373Z,5.03
2022-08-07T18:58:51.336Z,5.30
2022-08-07T19:02:17.634Z,4.95
2022-08-07T19:04:54.568Z,5.00
2022-08-07T19:07:53.772Z,5.15
2022-08-07T19:10:51.894Z,7.13
2022-08-07T19:13:35.468Z,6.10
2022-08-07T19:17:04.223Z,8.60
2022-08-07T19:19:13.098Z,4.85
2022-08-07T19:22:05.481Z,6.30
2022-08-07T19:24:43.467Z,6.43
2022-08-07T19:30:55.247Z,5.00
2022-08-07T19:30:55.674Z,6.40
2022-08-07T19:32:59.465Z,5.28
2022-08-07T19:35:28.427Z,15.43
2022-08-07T19:38:16.668Z,8.93
2022-08-07T19:40:50.745Z,21.63
2022-08-07T19:43:45.579Z,7.63
2022-08-07T19:46:11.104Z,14.48
2022-08-07T19:48:42.450Z,7.97
2022-08-07T19:51:19.127Z,7.15
2022-08-07T19:54:32.943Z,8.32
2022-08-07T19:57:51.951Z,6.00
2022-08-07T19:59:41.398Z,5.07
2022-08-07T20:02:19.705Z,5.25
2022-08-07T20:04:51.711Z,5.88
2022-08-07T20:07:26.958Z,5.85
2022-08-07T20:10:37.127Z,5.43
2022-08-07T20:13:06.047Z,5.38
2022-08-07T20:15:37.119Z,5.30
2022-08-07T20:20:41.939Z,5.30
2022-08-07T20:23:32.665Z,5.18
2022-08-07T20:26:10.155Z,5.53
2022-08-07T20:28:39.999Z,5.85
2022-08-07T20:31:21.677Z,4.68
2022-08-07T20:33:57.352Z,4.95
2022-08-07T20:36:28.336Z,5.03
2022-08-07T20:39:00.640Z,5.05
2022-08-07T20:41:48.239Z,5.43
2022-08-07T20:44:16.260Z,5.07
2022-08-07T20:46:46.113Z,5.82
2022-08-07T20:49:57.750Z,5.07
2022-08-07T20:52:14.094Z,5.60
2022-08-07T20:54:53.301Z,5.60
2022-08-07T20:57:47.489Z,5.30
2022-08-07T21:00:17.765Z,5.68
2022-08-07T21:03:02.990Z,5.82
2022-08-07T21:05:50.604Z,5.68
2022-08-07T21:08:37.560Z,5.85
2022-08-07T21:11:10.822Z,5.60
2022-08-07T21:14:20.137Z,4.90
2022-08-07T21:18:00.976Z,6.05
2022-08-07T21:19:51.757Z,5.90
2022-08-07T21:22:38.597Z,5.60
2022-08-07T21:25:43.694Z,5.60
2022-08-07T21:28:49.492Z,5.75
2022-08-07T21:32:42.075Z,5.50
2022-08-07T21:35:10.817Z,5.93
2022-08-07T21:37:58.692Z,5.95
2022-08-07T21:40:45.684Z,6.32
2022-08-07T21:43:56.674Z,6.40
2022-08-07T21:47:01.312Z,5.47
2022-08-07T21:50:01.206Z,6.03
2022-08-07T21:52:54.362Z,5.75
2022-08-07T21:55:28.282Z,5.57
2022-08-07T21:58:12.107Z,5.30
2022-08-07T22:00:54.118Z,6.00
2022-08-07T22:03:42.150Z,5.68
2022-08-07T22:06:29.960Z,5.60
2022-08-07T22:09:07.975Z,5.60
2022-08-07T22:12:04.775Z,5.60
2022-08-07T22:14:36.369Z,5.65
2022-08-07T22:17:05.930Z,5.70
2022-08-07T22:20:02.569Z,5.78
2022-08-07T22:22:36.781Z,5.93
2022-08-07T22:25:26.898Z,5.82
2022-08-07T22:28:31.557Z,6.13
2022-08-07T22:31:56.435Z,6.43
2022-08-07T22:34:33.188Z,6.00
2022-08-07T22:37:05.199Z,5.65
2022-08-07T22:39:52.390Z,5.78
2022-08-07T22:42:53.783Z,5.78
2022-08-07T22:46:04.386Z,5.78
2022-08-07T22:49:01.270Z,6.43
2022-08-07T22:51:36.598Z,6.90
2022-08-07T22:54:40.796Z,6.28
2022-08-07T22:57:37.324Z,6.15
2022-08-07T23:00:19.256Z,6.65
2022-08-07T23:02:56.838Z,5.93
2022-08-07T23:06:14.727Z,5.97
2022-08-07T23:10:00.868Z,5.65
2022-08-07T23:12:34.204Z,5.97
2022-08-07T23:16:04.645Z,6.20
2022-08-07T23:18:15.324Z,6.68
2022-08-07T23:21:03.129Z,6.20
2022-08-07T23:24:04.289Z,7.45
2022-08-07T23:27:02.920Z,7.00
2022-08-07T23:30:39.171Z,7.07
2022-08-07T23:34:34.963Z,6.47
2022-08-07T23:36:22.914Z,6.07
2022-08-07T23:39:22.154Z,7.07
2022-08-07T23:42:21.514Z,7.75
2022-08-07T23:45:07.156Z,7.70
2022-08-07T23:48:02.657Z,6.53
2022-08-07T23:50:54.740Z,6.57
2022-08-07T23:53:51.914Z,6.63
2022-08-07T23:56:31.152Z,6.53
